Time;durP1;ratioP1;P1;durP2;ratioP2;P2;SDS_P1;SDS_P2;PMS_P1;PMS_P2;Temp;Humidity;BMP_temperature;BMP_pressure;BME280_temperature;BME280_humidity;BME280_pressure;Samples;Min_cycle;Max_cycle;Signal;HPM_P1;HPM_P2
2021/03/09 00:01:55;;;;;;;15.10;12.97;;;;;;;-3.89;100.00;98321.34;5015705;28;20262;-71
2021/03/09 00:04:22;;;;;;;13.80;12.33;;;;;;;-3.90;100.00;98319.66;5007238;28;20215;-69
2021/03/09 00:06:49;;;;;;;14.87;11.90;;;;;;;-3.94;100.00;98316.38;5007315;28;20264;-71
2021/03/09 00:09:16;;;;;;;14.80;13.27;;;;;;;-3.98;100.00;98314.81;5011155;28;20209;-70
2021/03/09 00:11:43;;;;;;;15.63;12.53;;;;;;;-4.01;100.00;98309.75;5005615;28;20219;-71
2021/03/09 00:14:10;;;;;;;15.30;13.53;;;;;;;-3.97;100.00;98311.34;5009807;28;20616;-71
2021/03/09 00:16:38;;;;;;;16.27;13.10;;;;;;;-4.01;100.00;98304.59;5009881;28;20224;-71
2021/03/09 00:19:05;;;;;;;16.73;13.50;;;;;;;-4.04;100.00;98308.16;5004490;28;20205;-70
2021/03/09 00:21:32;;;;;;;16.43;14.00;;;;;;;-4.04;100.00;98307.31;5010354;28;20782;-71
2021/03/09 00:23:59;;;;;;;21.67;17.57;;;;;;;-4.06;100.00;98309.97;5011793;28;20204;-70
2021/03/09 00:26:26;;;;;;;20.67;17.80;;;;;;;-4.13;100.00;98305.97;5010165;28;20216;-70
2021/03/09 00:28:53;;;;;;;19.40;17.37;;;;;;;-4.18;100.00;98308.72;5009290;28;20212;-71
2021/03/09 00:31:20;;;;;;;16.33;13.57;;;;;;;-4.18;100.00;98302.69;5010014;28;20208;-70
2021/03/09 00:33:48;;;;;;;17.63;13.03;;;;;;;-4.08;100.00;98312.63;5007315;28;20201;-71
2021/03/09 00:36:15;;;;;;;17.70;12.13;;;;;;;-4.20;100.00;98305.38;5006526;28;20239;-71
2021/03/09 00:38:42;;;;;;;14.53;12.63;;;;;;;-4.18;100.00;98306.16;5008237;28;20227;-69
2021/03/09 00:41:10;;;;;;;13.33;11.93;;;;;;;-4.22;100.00;98305.41;5007790;28;20706;-70
2021/03/09 00:43:37;;;;;;;14.23;12.60;;;;;;;-4.22;100.00;98308.00;5010795;28;20211;-71
2021/03/09 00:46:04;;;;;;;16.37;12.77;;;;;;;-4.29;100.00;98300.56;5006473;28;20336;-71
2021/03/09 00:48:36;;;;;;;14.10;12.57;;;;;;;-4.33;100.00;98299.03;5008261;28;20228;-71
2021/03/09 00:51:05;;;;;;;15.63;12.17;;;;;;;-4.32;100.00;98295.53;5006832;28;20263;-71
2021/03/09 00:53:32;;;;;;;18.77;14.43;;;;;;;-4.36;100.00;98300.84;5013884;28;20201;-71
2021/03/09 00:55:59;;;;;;;17.07;15.17;;;;;;;-4.30;100.00;98304.91;5007846;28;20212;-70
2021/03/09 00:58:26;;;;;;;20.10;14.80;;;;;;;-4.39;100.00;98305.28;5009104;28;20228;-69
2021/03/09 01:00:54;;;;;;;17.07;13.27;;;;;;;-4.40;100.00;98298.41;5006636;28;20205;-70
2021/03/09 01:03:21;;;;;;;15.60;12.90;;;;;;;-4.43;100.00;98298.56;5011333;28;20204;-70
2021/03/09 01:05:49;;;;;;;15.07;13.27;;;;;;;-4.48;100.00;98303.91;5005717;28;20296;-71
2021/03/09 01:08:17;;;;;;;17.13;14.67;;;;;;;-4.53;100.00;98295.50;5007736;28;20232;-71
2021/03/09 01:10:44;;;;;;;18.07;14.87;;;;;;;-4.54;100.00;98298.97;5005248;28;20217;-72
2021/03/09 01:13:11;;;;;;;19.17;15.27;;;;;;;-4.55;100.00;98297.28;5011022;28;20205;-72
2021/03/09 01:15:38;;;;;;;14.27;12.80;;;;;;;-4.50;100.00;98297.94;5004172;28;20205;-71
2021/03/09 01:18:18;;;;;;;16.87;13.63;;;;;;;-4.53;100.00;98287.72;5011381;28;20228;-71
2021/03/09 01:20:46;;;;;;;15.17;12.90;;;;;;;-4.58;100.00;98293.06;5007607;28;20232;-71
2021/03/09 01:23:13;;;;;;;14.83;11.90;;;;;;;-4.57;100.00;98288.75;4998825;28;20205;-71
2021/03/09 01:25:41;;;;;;;17.27;14.90;;;;;;;-4.55;100.00;98279.19;5003936;28;20555;-71
2021/03/09 01:28:08;;;;;;;20.37;14.37;;;;;;;-4.61;100.00;98276.84;5005945;28;20225;-70
2021/03/09 01:30:35;;;;;;;18.33;15.33;;;;;;;-4.63;100.00;98281.25;5007528;28;20225;-71
2021/03/09 01:33:02;;;;;;;16.00;14.27;;;;;;;-4.63;100.00;98265.72;5011304;28;20231;-71
2021/03/09 01:35:30;;;;;;;16.10;13.27;;;;;;;-4.63;100.00;98260.56;5009140;28;20208;-71
2021/03/09 01:37:57;;;;;;;18.73;14.10;;;;;;;-4.66;100.00;98264.09;5005441;28;20228;-71
2021/03/09 01:40:25;;;;;;;15.00;13.13;;;;;;;-4.66;100.00;98257.19;5004154;28;20500;-70
2021/03/09 01:42:53;;;;;;;18.97;15.43;;;;;;;-4.63;100.00;98258.78;5005780;28;20804;-71
2021/03/09 01:45:21;;;;;;;16.20;14.30;;;;;;;-4.54;100.00;98253.28;5008079;28;20215;-71
2021/03/09 01:47:49;;;;;;;17.83;13.73;;;;;;;-4.60;100.00;98258.66;5008185;28;20228;-71
2021/03/09 01:50:19;;;;;;;15.27;13.73;;;;;;;-4.62;100.00;98250.13;5006452;28;20205;-72
2021/03/09 01:52:48;;;;;;;19.17;14.80;;;;;;;-4.60;100.00;98250.91;5006916;28;20219;-71
2021/03/09 01:55:15;;;;;;;17.03;14.50;;;;;;;-4.62;100.00;98249.31;5012028;28;20226;-71
2021/03/09 01:57:42;;;;;;;17.67;14.00;;;;;;;-4.71;100.00;98248.78;5005189;28;20233;-70
2021/03/09 02:00:12;;;;;;;15.70;13.53;;;;;;;-4.74;100.00;98240.28;5005457;28;20209;-71
2021/03/09 02:02:39;;;;;;;15.27;13.70;;;;;;;-4.72;100.00;98236.75;5009741;28;20200;-71
2021/03/09 02:05:08;;;;;;;16.57;14.77;;;;;;;-4.71;100.00;98229.81;5005940;28;20202;-71
2021/03/09 02:07:35;;;;;;;18.83;14.77;;;;;;;-4.73;100.00;98231.63;5008985;28;20224;-71
2021/03/09 02:10:05;;;;;;;16.47;14.40;;;;;;;-4.79;100.00;98232.72;5006394;28;20205;-71
2021/03/09 02:12:37;;;;;;;13.57;12.13;;;;;;;-4.83;100.00;98229.44;5005467;28;20216;-72
2021/03/09 02:15:13;;;;;;;17.10;14.07;;;;;;;-4.83;100.00;98221.66;5013760;28;20201;-70
2021/03/09 02:17:44;;;;;;;18.33;14.33;;;;;;;-4.86;100.00;98221.78;5012975;28;20228;-71
2021/03/09 02:20:44;;;;;;;16.73;14.17;;;;;;;-4.80;100.00;98218.97;5009123;28;20316;-71
2021/03/09 02:23:38;;;;;;;14.70;13.20;;;;;;;-4.75;100.00;98221.34;5010919;28;20209;-71
2021/03/09 02:26:26;;;;;;;16.37;12.80;;;;;;;-4.73;100.00;98226.47;5009433;28;20211;-71
2021/03/09 02:28:57;;;;;;;15.90;14.30;;;;;;;-4.66;100.00;98223.56;5009665;28;20205;-70
2021/03/09 02:31:27;;;;;;;14.43;12.93;;;;;;;-4.69;100.00;98221.13;5003202;28;20668;-71
2021/03/09 02:33:56;;;;;;;14.07;12.63;;;;;;;-4.65;100.00;98214.91;5010938;28;20252;-70
2021/03/09 02:36:26;;;;;;;15.07;13.47;;;;;;;-4.58;100.00;98205.13;5012095;28;20246;-71
2021/03/09 02:38:57;;;;;;;13.90;12.50;;;;;;;-4.67;100.00;98221.88;5006197;28;20197;-71
2021/03/09 02:41:25;;;;;;;14.77;13.27;;;;;;;-4.77;100.00;98209.38;5008716;28;20608;-72
2021/03/09 02:43:54;;;;;;;15.67;13.87;;;;;;;-4.80;100.00;98212.94;5007083;28;20262;-70
2021/03/09 02:46:24;;;;;;;13.47;12.13;;;;;;;-4.84;100.00;98212.22;5010178;28;20542;-70
2021/03/09 02:48:53;;;;;;;17.73;13.97;;;;;;;-4.83;100.00;98200.97;5010830;28;20205;-71
2021/03/09 02:51:23;;;;;;;13.23;11.80;;;;;;;-4.82;100.00;98206.97;5012467;28;20480;-71
2021/03/09 02:53:53;;;;;;;14.30;12.53;;;;;;;-4.77;100.00;98206.81;5008076;28;20212;-70
2021/03/09 02:56:21;;;;;;;15.07;13.23;;;;;;;-4.73;100.00;98200.59;5007449;28;21282;-69
2021/03/09 02:58:50;;;;;;;14.50;12.63;;;;;;;-4.87;100.00;98203.75;5006808;28;20224;-70
2021/03/09 03:01:17;;;;;;;14.13;12.70;;;;;;;-4.91;100.00;98197.88;5008646;28;20224;-70
2021/03/09 03:03:45;;;;;;;14.17;12.70;;;;;;;-4.92;100.00;98198.78;5012400;28;20889;-70
2021/03/09 03:06:13;;;;;;;17.57;13.80;;;;;;;-4.92;100.00;98193.59;5004482;28;20197;-71
2021/03/09 03:08:40;;;;;;;14.03;12.67;;;;;;;-4.91;100.00;98197.03;5003265;28;20823;-71
2021/03/09 03:11:08;;;;;;;14.07;12.57;;;;;;;-4.95;100.00;98191.13;5005313;28;20220;-70
2021/03/09 03:13:35;;;;;;;15.13;12.27;;;;;;;-4.99;100.00;98186.97;5004293;28;20216;-69
2021/03/09 03:16:03;;;;;;;17.53;13.60;;;;;;;-5.00;100.00;98195.63;5007065;28;20615;-70
2021/03/09 03:18:31;;;;;;;15.23;12.37;;;;;;;-4.87;100.00;98193.41;5008183;28;20783;-71
2021/03/09 03:20:59;;;;;;;15.23;13.63;;;;;;;-4.99;100.00;98185.25;5008118;28;20429;-71
2021/03/09 03:23:27;;;;;;;14.93;13.27;;;;;;;-5.04;100.00;98191.50;5008261;28;20207;-68
2021/03/09 03:25:56;;;;;;;13.77;12.30;;;;;;;-5.07;100.00;98184.72;5010642;28;20232;-70
2021/03/09 03:28:23;;;;;;;18.00;13.27;;;;;;;-5.05;100.00;98192.41;5011823;28;20320;-70
2021/03/09 03:30:51;;;;;;;14.67;13.07;;;;;;;-5.06;100.00;98193.31;4995871;28;20554;-70
2021/03/09 03:33:18;;;;;;;14.17;12.43;;;;;;;-5.05;100.00;98201.00;4997497;28;20215;-71
2021/03/09 03:35:45;;;;;;;17.90;12.97;;;;;;;-5.06;100.00;98189.00;5004386;28;20212;-70
2021/03/09 03:38:15;;;;;;;14.27;12.87;;;;;;;-5.08;100.00;98183.03;5001959;28;20249;-71
2021/03/09 03:40:43;;;;;;;15.20;13.27;;;;;;;-5.05;100.00;98185.50;4998572;28;20213;-71
2021/03/09 03:43:10;;;;;;;14.50;13.00;;;;;;;-5.09;100.00;98186.53;5000352;28;20590;-71
2021/03/09 03:45:37;;;;;;;14.73;13.00;;;;;;;-5.09;100.00;98187.34;5002660;28;20213;-70
2021/03/09 03:48:05;;;;;;;15.90;13.57;;;;;;;-5.09;100.00;98184.78;4997878;28;20703;-71
2021/03/09 03:50:33;;;;;;;16.27;13.33;;;;;;;-5.10;100.00;98184.84;4999322;28;20205;-71
2021/03/09 03:53:06;;;;;;;16.43;13.17;;;;;;;-5.10;100.00;98188.25;4999129;28;20223;-70
2021/03/09 03:55:50;;;;;;;14.00;12.10;;;;;;;-5.07;100.00;98179.56;5001957;28;20228;-71
2021/03/09 03:58:23;;;;;;;14.70;13.20;;;;;;;-5.13;100.00;98185.78;5005421;28;20231;-71
2021/03/09 04:00:52;;;;;;;15.10;13.37;;;;;;;-5.12;100.00;98181.44;5001900;28;20197;-70
2021/03/09 04:03:19;;;;;;;13.50;12.20;;;;;;;-5.16;100.00;98177.31;5005504;28;21995;-71
2021/03/09 04:05:49;;;;;;;15.10;13.33;;;;;;;-5.10;100.00;98180.50;5005226;28;20318;-70
2021/03/09 04:08:17;;;;;;;15.83;12.10;;;;;;;-5.11;100.00;98172.81;5009073;28;20715;-72
2021/03/09 04:10:48;;;;;;;14.73;13.33;;;;;;;-5.12;100.00;98171.97;5006804;28;20209;-70
2021/03/09 04:13:16;;;;;;;13.67;12.03;;;;;;;-5.12;100.00;98168.53;5015347;28;20290;-70
2021/03/09 04:15:44;;;;;;;15.00;12.83;;;;;;;-5.19;100.00;98173.13;5005408;28;20213;-71
2021/03/09 04:18:12;;;;;;;14.63;13.03;;;;;;;-5.13;100.00;98167.72;5008748;28;20232;-71
2021/03/09 04:20:42;;;;;;;15.17;12.17;;;;;;;-5.07;100.00;98163.19;5003947;28;20213;-70
2021/03/09 04:23:13;;;;;;;14.43;12.93;;;;;;;-5.01;100.00;98168.09;5006966;28;20390;-70
2021/03/09 04:25:41;;;;;;;15.07;12.60;;;;;;;-5.05;100.00;98167.41;5008404;28;20205;-70
2021/03/09 04:28:10;;;;;;;14.67;12.00;;;;;;;-5.05;100.00;98163.97;5007679;28;20224;-70
2021/03/09 04:30:37;;;;;;;16.63;12.93;;;;;;;-5.04;100.00;98166.50;5002666;28;20209;-70
2021/03/09 04:33:05;;;;;;;14.43;12.90;;;;;;;-5.09;100.00;98169.25;5003308;28;20216;-71
2021/03/09 04:35:32;;;;;;;14.70;12.30;;;;;;;-5.03;100.00;98169.91;5006659;28;20541;-71
2021/03/09 04:37:59;;;;;;;15.30;12.17;;;;;;;-5.01;100.00;98171.53;5005280;28;20238;-70
2021/03/09 04:40:26;;;;;;;17.87;13.33;;;;;;;-4.89;100.00;98171.94;5006548;28;20673;-68
2021/03/09 04:42:53;;;;;;;14.17;12.63;;;;;;;-4.90;100.00;98172.84;5004569;28;20212;-70
2021/03/09 04:45:21;;;;;;;14.03;12.60;;;;;;;-4.95;100.00;98176.47;5005190;28;20205;-71
2021/03/09 04:47:48;;;;;;;14.40;12.90;;;;;;;-4.87;100.00;98175.31;5012316;28;20452;-70
2021/03/09 04:50:16;;;;;;;17.33;14.47;;;;;;;-4.94;100.00;98178.16;5007354;28;20577;-71
2021/03/09 04:52:47;;;;;;;14.67;13.03;;;;;;;-5.01;100.00;98171.53;5012234;28;20215;-71
2021/03/09 04:55:15;;;;;;;14.37;12.87;;;;;;;-5.08;100.00;98180.47;5005725;28;20613;-69
2021/03/09 04:57:44;;;;;;;15.50;12.60;;;;;;;-5.10;100.00;98177.09;5003224;28;20571;-69
2021/03/09 05:00:13;;;;;;;16.20;12.50;;;;;;;-5.13;100.00;98178.03;5007917;28;20201;-71
2021/03/09 05:02:42;;;;;;;16.10;13.43;;;;;;;-5.10;100.00;98174.50;5004634;28;20288;-70
2021/03/09 05:05:11;;;;;;;13.97;12.27;;;;;;;-5.09;100.00;98174.44;5006639;28;20211;-70
2021/03/09 05:07:38;;;;;;;13.80;12.47;;;;;;;-4.98;100.00;98167.97;5004168;28;20409;-71
2021/03/09 05:10:07;;;;;;;15.47;13.27;;;;;;;-4.99;100.00;98163.72;5006086;28;20215;-70
2021/03/09 05:12:34;;;;;;;14.27;11.93;;;;;;;-5.01;100.00;98171.53;4998724;28;20236;-71
2021/03/09 05:15:02;;;;;;;15.53;13.23;;;;;;;-4.89;100.00;98164.19;5005695;28;20626;-70
2021/03/09 05:17:29;;;;;;;16.23;12.63;;;;;;;-4.78;100.00;98156.81;5008330;28;20240;-70
2021/03/09 05:19:57;;;;;;;15.97;13.10;;;;;;;-4.81;100.00;98157.81;5003295;28;20239;-69
2021/03/09 05:22:24;;;;;;;15.73;13.27;;;;;;;-4.82;100.00;98156.13;5005551;28;20213;-70
2021/03/09 05:24:51;;;;;;;17.10;12.53;;;;;;;-4.75;100.00;98155.88;4998959;28;20209;-71
2021/03/09 05:27:18;;;;;;;16.43;13.20;;;;;;;-4.84;100.00;98154.50;5003404;28;20216;-70
2021/03/09 05:29:45;;;;;;;15.27;13.10;;;;;;;-4.82;100.00;98160.44;5002641;28;20213;-70
2021/03/09 05:32:12;;;;;;;15.00;12.53;;;;;;;-4.82;100.00;98153.53;5007700;28;21116;-69
2021/03/09 05:34:40;;;;;;;14.60;13.10;;;;;;;-4.83;100.00;98163.94;5003094;28;21241;-68
2021/03/09 05:37:09;;;;;;;13.70;12.07;;;;;;;-4.88;100.00;98164.13;4998552;28;20233;-69
2021/03/09 05:39:36;;;;;;;12.97;11.67;;;;;;;-4.50;100.00;98158.25;5000431;28;20391;-68
2021/03/09 05:42:04;;;;;;;14.90;12.33;;;;;;;-4.47;100.00;98160.69;5010085;28;20580;-69
2021/03/09 05:44:31;;;;;;;15.70;13.07;;;;;;;-4.70;100.00;98166.84;5005025;28;20205;-70
2021/03/09 05:46:59;;;;;;;13.00;11.80;;;;;;;-4.74;100.00;98162.72;5003975;28;20843;-70
2021/03/09 05:49:26;;;;;;;14.20;12.70;;;;;;;-4.82;100.00;98166.47;5007232;28;20331;-69
2021/03/09 05:51:53;;;;;;;13.57;12.17;;;;;;;-4.68;100.00;98167.63;5013559;28;20204;-71
2021/03/09 05:54:22;;;;;;;13.90;12.27;;;;;;;-4.71;100.00;98168.63;5009022;28;20208;-70
2021/03/09 05:56:49;;;;;;;17.07;12.73;;;;;;;-4.76;100.00;98167.94;5009974;28;20771;-70
2021/03/09 05:59:16;;;;;;;15.70;11.83;;;;;;;-4.40;100.00;98158.69;5010863;28;20315;-70
2021/03/09 06:01:43;;;;;;;16.30;13.03;;;;;;;-4.10;100.00;98164.28;5009636;28;20310;-70
2021/03/09 06:04:10;;;;;;;15.73;12.80;;;;;;;-4.03;100.00;98164.84;5006960;28;20215;-71
2021/03/09 06:06:37;;;;;;;15.77;12.97;;;;;;;-4.12;100.00;98171.28;5009535;28;20621;-70
2021/03/09 06:09:38;;;;;;;15.37;12.97;;;;;;;-3.81;100.00;98159.56;5006950;28;20800;-70
2021/03/09 06:12:13;;;;;;;20.70;17.80;;;;;;;-3.20;100.00;98167.13;5009164;28;20286;-70
2021/03/09 06:14:42;;;;;;;16.17;14.07;;;;;;;-3.13;100.00;98167.69;5006370;28;20211;-70
2021/03/09 06:17:14;;;;;;;14.53;13.07;;;;;;;-3.40;100.00;98168.06;5009246;28;20236;-70
2021/03/09 06:19:45;;;;;;;20.40;14.90;;;;;;;-3.60;100.00;98167.22;5002378;28;20205;-70
2021/03/09 06:22:13;;;;;;;17.17;13.43;;;;;;;-3.56;100.00;98171.41;5006006;28;20201;-70
2021/03/09 06:24:42;;;;;;;16.83;14.17;;;;;;;-3.57;100.00;98177.50;5009118;28;20216;-70
2021/03/09 06:27:26;;;;;;;16.03;13.57;;;;;;;-3.51;100.00;98172.00;5007321;28;20248;-70
2021/03/09 06:29:54;;;;;;;15.10;12.90;;;;;;;-3.61;100.00;98175.09;5008501;28;20219;-70
2021/03/09 06:32:21;;;;;;;13.87;12.47;;;;;;;-3.55;100.00;98173.06;5011447;28;20582;-70
2021/03/09 06:34:49;;;;;;;14.70;11.43;;;;;;;-3.49;100.00;98177.13;5012109;28;20205;-70
2021/03/09 06:37:18;;;;;;;13.33;11.10;;;;;;;-3.45;100.00;98176.06;5006700;28;20708;-70
2021/03/09 06:39:51;;;;;;;14.03;12.57;;;;;;;-3.39;100.00;98177.53;5007248;28;20586;-69
2021/03/09 06:42:25;;;;;;;13.07;11.73;;;;;;;-3.43;100.00;98179.41;5011423;28;20286;-70
2021/03/09 06:44:57;;;;;;;12.47;11.13;;;;;;;-3.36;100.00;98182.56;5009269;28;20673;-70
2021/03/09 06:47:35;;;;;;;12.33;11.13;;;;;;;-3.38;100.00;98179.22;5009329;28;20411;-71
2021/03/09 06:50:03;;;;;;;13.13;11.73;;;;;;;-3.09;100.00;98180.41;5008413;28;20205;-70
2021/03/09 06:52:30;;;;;;;14.37;12.17;;;;;;;-3.18;100.00;98183.44;5006581;28;20212;-68
2021/03/09 06:54:58;;;;;;;14.10;12.37;;;;;;;-3.10;100.00;98185.69;5009814;28;20208;-70
2021/03/09 06:57:25;;;;;;;14.30;11.60;;;;;;;-3.00;98.46;98188.69;5011892;28;20243;-70
2021/03/09 06:59:53;;;;;;;14.87;12.20;;;;;;;-2.95;98.47;98190.13;5008357;28;20213;-72
2021/03/09 07:02:21;;;;;;;14.70;13.17;;;;;;;-3.01;99.55;98193.00;5013874;28;20204;-70
2021/03/09 07:04:49;;;;;;;13.37;12.07;;;;;;;-2.96;99.81;98191.03;5008919;28;20208;-70
2021/03/09 07:07:22;;;;;;;14.27;12.30;;;;;;;-2.73;100.00;98196.88;5008746;28;20225;-70
2021/03/09 07:09:58;;;;;;;12.33;11.03;;;;;;;-2.64;96.74;98201.59;5008604;28;20213;-70
2021/03/09 07:12:26;;;;;;;16.00;13.20;;;;;;;-2.67;97.56;98201.75;5008120;28;20578;-70
2021/03/09 07:14:53;;;;;;;15.27;12.60;;;;;;;-2.62;98.65;98202.38;5006588;28;20209;-71
2021/03/09 07:17:23;;;;;;;15.17;12.60;;;;;;;-2.34;96.43;98206.19;5010728;28;20595;-70
2021/03/09 07:19:52;;;;;;;13.77;11.37;;;;;;;-2.37;97.35;98203.75;5006143;28;20295;-70
2021/03/09 07:22:20;;;;;;;15.23;13.30;;;;;;;-2.07;96.13;98195.31;5005855;28;20200;-70
2021/03/09 07:25:01;;;;;;;13.57;12.23;;;;;;;-2.06;96.34;98198.72;5004875;28;20215;-71
2021/03/09 07:27:40;;;;;;;14.70;12.60;;;;;;;-2.05;96.51;98206.47;5007284;28;20231;-70
2021/03/09 07:30:08;;;;;;;14.20;12.27;;;;;;;-2.07;95.18;98202.25;5005798;28;20200;-70
2021/03/09 07:32:38;;;;;;;14.10;12.23;;;;;;;-1.99;95.40;98204.47;5005635;28;20212;-70
2021/03/09 07:35:07;;;;;;;13.53;12.23;;;;;;;-1.90;95.09;98203.97;5006419;28;20205;-70
2021/03/09 07:37:36;;;;;;;14.43;12.97;;;;;;;-1.78;94.53;98203.31;5005364;28;20233;-71
2021/03/09 07:40:11;;;;;;;13.43;11.27;;;;;;;-1.69;94.61;98201.16;5007993;28;20201;-70
2021/03/09 07:42:38;;;;;;;14.60;13.23;;;;;;;-1.55;94.14;98203.84;5010481;28;20210;-69
2021/03/09 07:45:10;;;;;;;16.17;12.50;;;;;;;-1.62;93.49;98198.13;5003232;28;20543;-70
2021/03/09 07:47:41;;;;;;;16.50;13.33;;;;;;;-1.37;92.52;98211.56;5003903;28;20225;-68
2021/03/09 07:50:10;;;;;;;15.63;14.00;;;;;;;-1.50;94.21;98201.84;5008599;28;20212;-70
2021/03/09 07:52:36;;;;;;;19.93;13.40;;;;;;;-1.12;90.44;98203.28;5006301;28;20217;-70
2021/03/09 07:55:20;;;;;;;15.87;13.97;;;;;;;-1.01;90.92;98202.66;5007335;28;20217;-69
2021/03/09 07:57:47;;;;;;;16.70;13.07;;;;;;;-0.96;92.05;98197.22;5006501;28;20319;-69
2021/03/09 08:00:14;;;;;;;18.77;15.63;;;;;;;-0.87;90.73;98196.69;5007742;28;20232;-70
2021/03/09 08:02:53;;;;;;;21.03;15.27;;;;;;;-0.75;89.59;98198.63;5005024;28;20543;-70
2021/03/09 08:05:22;;;;;;;17.57;14.20;;;;;;;-0.99;90.39;98194.78;5007138;28;20212;-70
2021/03/09 08:07:57;;;;;;;23.33;16.63;;;;;;;-0.75;90.42;98203.81;5005906;28;20795;-70
2021/03/09 08:10:46;;;;;;;19.10;13.63;;;;;;;-0.57;87.95;98206.28;5006235;28;20195;-71
2021/03/09 08:13:19;;;;;;;18.90;12.83;;;;;;;-0.56;87.32;98196.72;5005598;28;20670;-70
2021/03/09 08:15:46;;;;;;;16.37;12.80;;;;;;;-0.48;87.73;98205.75;5008227;28;20204;-70
2021/03/09 08:18:44;;;;;;;18.77;12.87;;;;;;;-0.17;86.29;98201.34;5004541;28;20453;-71
2021/03/09 08:21:11;;;;;;;16.07;13.13;;;;;;;-0.22;87.03;98205.13;5006973;28;20205;-70
2021/03/09 08:23:55;;;;;;;20.57;13.13;;;;;;;-0.27;85.70;98209.78;5008760;28;20231;-70
2021/03/09 08:26:58;;;;;;;15.43;11.80;;;;;;;0.03;84.26;98209.75;5005646;28;20735;-70
2021/03/09 08:29:37;;;;;;;19.93;13.60;;;;;;;0.25;83.91;98196.25;5004480;28;20216;-70
2021/03/09 08:32:29;;;;;;;18.47;12.93;;;;;;;0.30;83.51;98200.34;5008862;28;20223;-70
2021/03/09 08:35:37;;;;;;;18.27;12.63;;;;;;;0.27;83.67;98202.22;5005098;28;20677;-71
2021/03/09 08:38:18;;;;;;;17.23;13.50;;;;;;;0.31;84.83;98200.22;5003699;28;20224;-71
2021/03/09 08:41:12;;;;;;;17.23;13.00;;;;;;;0.43;84.01;98199.50;5004398;28;20224;-70
2021/03/09 08:43:40;;;;;;;19.23;13.20;;;;;;;0.64;81.52;98200.88;5000844;28;20295;-70
2021/03/09 08:46:11;;;;;;;17.27;13.37;;;;;;;0.74;81.42;98199.34;5004511;28;20548;-71
2021/03/09 08:48:58;;;;;;;18.70;12.70;;;;;;;0.80;81.35;98196.34;5007702;28;20225;-71
2021/03/09 08:51:44;;;;;;;19.00;12.23;;;;;;;0.73;82.10;98192.47;5002789;28;20678;-69
2021/03/09 08:54:36;;;;;;;15.87;11.93;;;;;;;0.65;83.44;98192.09;5008646;28;20211;-70
2021/03/09 08:57:06;;;;;;;23.83;13.53;;;;;;;0.79;81.81;98186.84;5007533;28;20711;-71
2021/03/09 08:59:34;;;;;;;20.40;13.40;;;;;;;1.05;82.34;98192.19;5001806;28;20221;-71
2021/03/09 09:02:14;;;;;;;19.43;12.87;;;;;;;1.21;80.31;98186.81;5003602;28;20208;-71
2021/03/09 09:04:43;;;;;;;18.33;13.93;;;;;;;1.30;79.52;98193.16;5000222;28;20205;-70
2021/03/09 09:07:22;;;;;;;27.50;13.00;;;;;;;1.64;78.86;98188.34;5004905;28;20527;-70
2021/03/09 09:09:50;;;;;;;21.50;13.50;;;;;;;1.79;77.71;98190.88;5005940;28;20214;-68
2021/03/09 09:12:21;;;;;;;19.60;13.57;;;;;;;1.95;76.24;98175.81;5007428;28;20201;-70
2021/03/09 09:15:01;;;;;;;15.87;13.37;;;;;;;2.22;74.04;98179.22;5003743;28;20215;-70
2021/03/09 09:17:29;;;;;;;16.27;13.03;;;;;;;2.29;73.20;98173.47;5005459;28;20234;-71
2021/03/09 09:19:57;;;;;;;16.60;13.23;;;;;;;2.12;74.35;98179.88;5009212;28;20204;-72
2021/03/09 09:22:25;;;;;;;15.80;12.43;;;;;;;1.94;75.31;98181.97;5003228;28;20760;-70
2021/03/09 09:24:56;;;;;;;18.50;12.53;;;;;;;2.03;74.21;98177.91;5008158;28;20205;-70
2021/03/09 09:27:23;;;;;;;17.00;12.27;;;;;;;2.26;73.94;98171.09;5011305;28;20308;-71
2021/03/09 09:29:53;;;;;;;14.63;13.13;;;;;;;2.50;72.67;98169.47;5010915;28;20212;-70
2021/03/09 09:32:20;;;;;;;14.37;12.83;;;;;;;2.45;73.10;98173.25;5009876;28;20207;-71
2021/03/09 09:34:57;;;;;;;15.83;12.43;;;;;;;2.70;71.71;98168.91;5012771;28;20587;-71
2021/03/09 09:37:24;;;;;;;15.37;13.77;;;;;;;2.99;69.28;98172.97;5012225;28;20305;-70
2021/03/09 09:39:51;;;;;;;14.50;12.97;;;;;;;3.00;68.89;98169.41;5012553;28;20599;-70
2021/03/09 09:42:19;;;;;;;15.80;14.30;;;;;;;2.86;69.04;98162.56;5007429;28;20287;-71
2021/03/09 09:44:47;;;;;;;15.40;13.50;;;;;;;3.41;67.00;98169.91;5007656;28;20301;-70
2021/03/09 09:47:14;;;;;;;15.00;13.43;;;;;;;3.27;66.97;98166.53;5012687;28;20220;-71
2021/03/09 09:49:44;;;;;;;17.13;13.70;;;;;;;3.53;66.09;98166.38;5009603;28;20205;-71
2021/03/09 09:52:18;;;;;;;13.63;12.20;;;;;;;3.73;65.80;98157.03;5010331;28;20219;-70
2021/03/09 09:54:53;;;;;;;15.43;13.83;;;;;;;3.52;66.09;98161.25;5009742;28;20224;-71
2021/03/09 09:57:21;;;;;;;15.67;13.77;;;;;;;3.70;65.55;98159.88;5008758;28;20680;-71
2021/03/09 09:59:48;;;;;;;16.00;13.37;;;;;;;3.43;66.42;98168.03;5007331;28;20233;-71
2021/03/09 10:02:23;;;;;;;14.77;13.33;;;;;;;3.38;66.44;98160.50;5008003;28;20208;-70
2021/03/09 10:04:51;;;;;;;16.70;13.90;;;;;;;3.03;67.06;98166.56;5007943;28;20570;-71
2021/03/09 10:07:21;;;;;;;17.13;14.50;;;;;;;3.43;66.22;98166.25;5007973;28;20229;-70
2021/03/09 10:10:06;;;;;;;16.73;15.03;;;;;;;3.44;66.16;98170.53;5011055;28;20209;-72
2021/03/09 10:12:45;;;;;;;16.63;14.90;;;;;;;3.48;65.84;98165.91;5009391;28;20677;-71
2021/03/09 10:15:12;;;;;;;17.30;14.67;;;;;;;3.60;65.12;98158.91;5007299;28;20297;-71
2021/03/09 10:17:39;;;;;;;17.17;15.37;;;;;;;3.87;64.21;98155.97;5009183;28;20228;-70
2021/03/09 10:20:18;;;;;;;17.03;14.70;;;;;;;3.60;63.67;98170.22;5010095;28;20216;-71
2021/03/09 10:22:46;;;;;;;16.27;14.43;;;;;;;3.74;64.90;98157.84;5008024;28;20212;-71
2021/03/09 10:25:14;;;;;;;15.67;13.73;;;;;;;4.03;62.03;98154.78;5003344;28;20208;-71
2021/03/09 10:27:42;;;;;;;17.10;14.63;;;;;;;4.51;60.87;98151.06;5008494;28;20221;-70
2021/03/09 10:30:10;;;;;;;19.27;15.70;;;;;;;4.69;60.84;98154.03;5013267;28;20200;-70
2021/03/09 10:32:50;;;;;;;16.37;14.63;;;;;;;3.87;62.87;98153.34;5010197;28;20208;-71
2021/03/09 10:35:18;;;;;;;16.13;14.47;;;;;;;3.99;63.01;98150.72;5007897;28;20201;-70
2021/03/09 10:37:46;;;;;;;16.53;14.83;;;;;;;4.18;62.68;98145.75;5007470;28;20551;-71
2021/03/09 10:40:14;;;;;;;17.23;14.40;;;;;;;4.45;61.45;98148.94;5006252;28;20573;-70
2021/03/09 10:42:48;;;;;;;16.03;14.40;;;;;;;4.68;60.82;98146.25;5008275;28;20216;-71
2021/03/09 10:45:20;;;;;;;15.87;14.27;;;;;;;4.80;60.37;98147.06;5008041;28;20213;-71
2021/03/09 10:47:50;;;;;;;15.87;14.10;;;;;;;4.53;60.53;98140.44;5013403;28;20716;-70
2021/03/09 10:50:19;;;;;;;16.07;14.37;;;;;;;4.40;60.24;98145.84;5005305;28;20205;-70
2021/03/09 10:52:47;;;;;;;20.27;15.40;;;;;;;4.43;60.59;98141.16;5008785;28;20209;-71
2021/03/09 10:55:14;;;;;;;16.20;14.60;;;;;;;4.52;60.41;98137.00;5003988;28;20197;-70
2021/03/09 10:57:41;;;;;;;14.40;12.97;;;;;;;4.82;58.97;98132.88;5009030;28;20235;-71
2021/03/09 11:00:10;;;;;;;16.63;14.83;;;;;;;5.09;58.19;98134.19;5006293;28;20225;-71
2021/03/09 11:02:36;;;;;;;16.33;14.63;;;;;;;4.67;59.18;98132.31;5007232;28;20215;-70
2021/03/09 11:05:05;;;;;;;16.43;14.33;;;;;;;4.35;60.51;98139.16;5006270;28;20228;-70
2021/03/09 11:07:32;;;;;;;16.87;15.10;;;;;;;4.72;58.83;98130.16;5009702;28;20228;-70
2021/03/09 11:10:00;;;;;;;15.50;14.00;;;;;;;4.78;57.83;98126.19;5008618;28;20197;-70
2021/03/09 11:12:27;;;;;;;16.53;14.73;;;;;;;4.75;57.94;98131.72;5004540;28;20205;-71
2021/03/09 11:14:54;;;;;;;13.83;12.47;;;;;;;4.87;56.87;98130.69;5005787;28;20209;-70
2021/03/09 11:17:21;;;;;;;15.03;13.53;;;;;;;4.77;57.78;98135.84;5009865;28;20224;-72
2021/03/09 11:19:48;;;;;;;15.40;12.93;;;;;;;4.80;57.65;98132.16;5007610;28;20231;-70
2021/03/09 11:22:15;;;;;;;16.57;12.90;;;;;;;4.90;57.68;98127.81;5003386;28;20209;-71
2021/03/09 11:24:42;;;;;;;14.83;13.43;;;;;;;4.64;58.75;98127.31;5003439;28;20674;-71
2021/03/09 11:27:10;;;;;;;15.33;13.60;;;;;;;4.79;58.52;98125.25;5007034;28;20235;-70
2021/03/09 11:29:37;;;;;;;14.70;13.30;;;;;;;4.94;58.47;98125.78;5004537;28;20720;-71